createdAt,value
2016-04-23T00:00:33.763Z,0
2016-04-23T00:01:33.813Z,0
2016-04-23T00:02:33.863Z,0
2016-04-23T00:03:33.896Z,0
2016-04-23T00:04:33.930Z,0
2016-04-23T00:05:34.011Z,0
2016-04-23T00:06:33.999Z,0
2016-04-23T00:07:34.048Z,0
2016-04-23T00:08:34.098Z,0
2016-04-23T00:09:34.131Z,0
2016-04-23T00:10:34.166Z,0
2016-04-23T00:11:34.199Z,0
2016-04-23T00:12:34.312Z,0
2016-04-23T00:13:34.298Z,0
2016-04-23T00:14:34.301Z,0
2016-04-23T00:15:34.351Z,0
2016-04-23T00:16:34.494Z,0
2016-04-23T00:17:34.418Z,0
2016-04-23T00:18:33.734Z,0
2016-04-23T00:19:34.503Z,0
2016-04-23T00:20:34.614Z,0
2016-04-23T00:21:34.601Z,0
2016-04-23T00:22:34.604Z,0
2016-04-23T00:23:34.747Z,0
2016-04-23T00:24:34.703Z,0
2016-04-23T00:25:34.722Z,0
2016-04-23T00:26:34.817Z,0
2016-04-23T00:27:34.852Z,0
2016-04-23T00:28:34.855Z,0
2016-04-23T00:29:34.919Z,0
2016-04-23T00:30:34.953Z,0
2016-04-23T00:31:34.972Z,0
2016-04-23T00:32:35.006Z,0
2016-04-23T00:33:35.086Z,0
2016-04-23T00:34:35.183Z,0
2016-04-23T00:35:35.108Z,0
2016-04-23T00:36:35.141Z,0
2016-04-23T00:37:35.191Z,0
2016-04-23T00:38:35.241Z,0
2016-04-23T00:39:35.274Z,0
2016-04-23T00:40:35.324Z,0
2016-04-23T00:41:35.421Z,0
2016-04-23T00:42:35.392Z,0
2016-04-23T00:43:35.410Z,0
2016-04-23T00:44:35.523Z,0
2016-04-23T00:45:35.557Z,0
2016-04-23T00:46:35.543Z,0
2016-04-23T00:47:35.578Z,0
2016-04-23T00:48:35.674Z,0
2016-04-23T00:49:35.692Z,0
2016-04-23T00:50:35.679Z,0
2016-04-23T00:51:35.728Z,0
2016-04-23T00:52:35.842Z,0
2016-04-23T00:53:35.812Z,0
2016-04-23T00:54:35.862Z,0
2016-04-23T00:55:35.942Z,0
2016-04-23T00:56:36.008Z,0
2016-04-23T00:57:35.948Z,0
2016-04-23T00:58:35.997Z,0
2016-04-23T00:59:36.094Z,0
2016-04-23T01:00:36.081Z,0
2016-04-23T01:01:36.116Z,0
2016-04-23T01:02:36.133Z,0
2016-04-23T01:03:36.291Z,0
2016-04-23T01:04:36.232Z,0
2016-04-23T01:05:36.252Z,0
2016-04-23T01:06:36.347Z,0
2016-04-23T01:07:36.381Z,0
2016-04-23T01:08:36.400Z,0
2016-04-23T01:09:36.418Z,0
2016-04-23T01:10:36.483Z,0
2016-04-23T01:11:36.579Z,0
2016-04-23T01:12:36.536Z,0
2016-04-23T01:13:36.601Z,0
2016-04-23T01:14:36.650Z,0
2016-04-23T01:15:36.653Z,0
2016-04-23T01:16:36.686Z,0
2016-04-23T01:17:36.737Z,0
2016-04-23T01:18:36.770Z,0
2016-04-23T01:19:36.789Z,0
2016-04-23T01:20:36.854Z,0
2016-04-23T01:21:36.904Z,0
2016-04-23T01:22:36.937Z,0
2016-04-23T01:23:36.939Z,0
2016-04-23T01:24:36.990Z,0
2016-04-23T01:25:36.930Z,0
2016-04-23T01:26:37.058Z,0
2016-04-23T01:27:37.106Z,0
2016-04-23T01:28:37.156Z,0
2016-04-23T01:29:36.425Z,0
2016-04-23T01:30:37.208Z,0
2016-04-23T01:31:37.227Z,0
2016-04-23T01:32:37.292Z,0
2016-04-23T01:33:37.358Z,0
2016-04-23T01:34:36.594Z,0
2016-04-23T01:35:37.441Z,0
2016-04-23T01:36:37.475Z,0
2016-04-23T01:37:36.727Z,0
2016-04-23T01:38:37.496Z,0
2016-04-23T01:39:37.546Z,0
2016-04-23T01:40:37.673Z,0
2016-04-23T01:41:37.519Z,0
2016-04-23T01:42:37.663Z,0
2016-04-23T01:43:37.759Z,0
2016-04-23T01:44:37.809Z,0
2016-04-23T01:45:37.765Z,0
2016-04-23T01:46:37.815Z,0
2016-04-23T01:47:37.785Z,0
2016-04-23T01:48:37.898Z,0
2016-04-23T01:49:37.932Z,0
2016-04-23T01:50:37.965Z,0
2016-04-23T01:51:38.015Z,0
2016-04-23T01:52:38.048Z,0
2016-04-23T01:53:38.068Z,0
2016-04-23T01:54:38.164Z,0
2016-04-23T01:55:38.213Z,0
2016-04-23T01:56:38.201Z,0
2016-04-23T01:57:38.234Z,0
2016-04-23T01:58:38.284Z,0
2016-04-23T01:59:38.396Z,0
2016-04-23T02:00:38.353Z,0
2016-04-23T02:01:38.402Z,0
2016-04-23T02:02:38.388Z,0
2016-04-23T02:03:38.453Z,0
2016-04-23T02:04:38.487Z,0
2016-04-23T02:05:38.522Z,0
2016-04-23T02:06:38.586Z,0
2016-04-23T02:07:38.636Z,0
2016-04-23T02:08:38.639Z,0
2016-04-23T02:09:38.705Z,0
2016-04-23T02:10:38.785Z,0
2016-04-23T02:11:38.803Z,0
2016-04-23T02:12:38.775Z,0
2016-04-23T02:13:38.840Z,0
2016-04-23T02:14:38.171Z,0
2016-04-23T02:15:38.907Z,0
2016-04-23T02:16:38.926Z,0
2016-04-23T02:17:39.085Z,0
2016-04-23T02:18:39.072Z,0
2016-04-23T02:19:39.043Z,0
2016-04-23T02:20:39.093Z,0
2016-04-23T02:21:39.127Z,0
2016-04-23T02:22:39.233Z,0
2016-04-23T02:23:39.205Z,0
2016-04-23T02:24:39.239Z,0
2016-04-23T02:25:39.366Z,0
2016-04-23T02:26:39.385Z,0
2016-04-23T02:27:39.340Z,0
2016-04-23T02:28:39.375Z,0
2016-04-23T02:29:39.439Z,0
2016-04-23T02:30:39.505Z,0
2016-04-23T02:31:39.492Z,0
2016-04-23T02:32:38.776Z,0
2016-04-23T02:33:39.575Z,0
2016-04-23T02:34:39.640Z,0
2016-04-23T02:35:39.643Z,0
2016-04-23T02:36:38.927Z,0
2016-04-23T02:37:39.821Z,0
2016-04-23T02:38:39.792Z,0
2016-04-23T02:39:39.795Z,0
2016-04-23T02:40:39.844Z,0
2016-04-23T02:41:39.956Z,0
2016-04-23T02:42:39.928Z,0
2016-04-23T02:43:39.946Z,0
2016-04-23T02:44:40.059Z,0
2016-04-23T02:45:40.092Z,0
2016-04-23T02:46:40.064Z,0
2016-04-23T02:47:40.113Z,0
2016-04-23T02:48:40.147Z,0
2016-04-23T02:49:40.212Z,0
2016-04-23T02:50:40.230Z,0
2016-04-23T02:51:40.265Z,0
2016-04-23T02:52:40.330Z,0
2016-04-23T02:53:40.332Z,0
2016-04-23T02:54:40.367Z,0
2016-04-23T02:55:40.416Z,0
2016-04-23T02:56:40.528Z,0
2016-04-23T02:57:40.514Z,0
2016-04-23T02:58:40.518Z,0
2016-04-23T02:59:40.552Z,0
2016-04-23T03:00:40.647Z,0
2016-04-23T03:01:40.666Z,0
2016-04-23T03:02:40.685Z,0
2016-04-23T03:03:40.735Z,0
2016-04-23T03:04:40.737Z,0
2016-04-23T03:05:40.786Z,0
2016-04-23T03:06:40.836Z,0
2016-04-23T03:07:40.885Z,0
2016-04-23T03:08:40.888Z,0
2016-04-23T03:09:40.938Z,0
2016-04-23T03:10:40.238Z,0
2016-04-23T03:11:41.068Z,0
2016-04-23T03:12:41.039Z,0
2016-04-23T03:13:41.074Z,0
2016-04-23T03:14:41.154Z,0
2016-04-23T03:15:41.172Z,0
2016-04-23T03:16:41.191Z,0
2016-04-23T03:17:41.287Z,0
2016-04-23T03:18:41.306Z,0
2016-04-23T03:19:41.324Z,0
2016-04-23T03:20:41.343Z,0
2016-04-23T03:21:41.423Z,0
2016-04-23T03:22:41.489Z,0
2016-04-23T03:23:41.475Z,0
2016-04-23T03:24:41.556Z,0
2016-04-23T03:25:41.574Z,0
2016-04-23T03:26:41.608Z,0
2016-04-23T03:27:41.596Z,0
2016-04-23T03:28:41.677Z,0
2016-04-23T03:29:41.742Z,0
2016-04-23T03:30:41.713Z,0
2016-04-23T03:31:41.763Z,0
2016-04-23T03:32:41.859Z,0
2016-04-23T03:33:41.971Z,0
2016-04-23T03:34:40.958Z,0
2016-04-23T03:35:41.914Z,0
2016-04-23T03:36:42.058Z,0
2016-04-23T03:37:42.013Z,0
2016-04-23T03:38:42.032Z,0
2016-04-23T03:39:42.082Z,0
2016-04-23T03:40:42.115Z,0
2016-04-23T03:41:42.148Z,0
2016-04-23T03:42:42.198Z,0
2016-04-23T03:43:42.233Z,0
2016-04-23T03:44:42.266Z,0
2016-04-23T03:45:42.285Z,0
2016-04-23T03:46:41.553Z,0
2016-04-23T03:47:42.446Z,0
2016-04-23T03:48:42.418Z,0
2016-04-23T03:49:42.436Z,0
2016-04-23T03:50:42.517Z,0
2016-04-23T03:51:41.754Z,0
2016-04-23T03:52:42.570Z,0
2016-04-23T03:53:42.603Z,0
2016-04-23T03:54:42.684Z,0
2016-04-23T03:55:42.706Z,5
2016-04-23T03:56:42.709Z,5
2016-04-23T03:57:41.977Z,5
2016-04-23T03:58:42.839Z,5
2016-04-23T03:59:42.827Z,5
2016-04-23T04:00:42.859Z,5
2016-04-23T04:01:42.988Z,5
2016-04-23T04:02:43.007Z,5
2016-04-23T04:03:42.978Z,5
2016-04-23T04:04:42.995Z,10
2016-04-23T04:05:42.342Z,10
2016-04-23T04:06:43.111Z,10
2016-04-23T04:07:43.129Z,10
2016-04-23T04:08:43.195Z,10
2016-04-23T04:09:43.244Z,15
2016-04-23T04:10:43.246Z,15
2016-04-23T04:11:43.296Z,15
2016-04-23T04:12:43.330Z,15
2016-04-23T04:13:43.411Z,15
2016-04-23T04:14:43.383Z,20
2016-04-23T04:15:43.447Z,20
2016-04-23T04:16:43.466Z,20
2016-04-23T04:17:43.531Z,20
2016-04-23T04:18:42.768Z,20
2016-04-23T04:19:43.583Z,25
2016-04-23T04:20:43.710Z,25
2016-04-23T04:21:43.651Z,25
2016-04-23T04:22:42.919Z,25
2016-04-23T04:23:43.782Z,30
2016-04-23T04:24:43.785Z,30
2016-04-23T04:25:43.787Z,30
2016-04-23T04:26:43.868Z,30
2016-04-23T04:27:43.729Z,35
2016-04-23T04:28:43.904Z,35
2016-04-23T04:29:43.938Z,35
2016-04-23T04:30:44.035Z,35
2016-04-23T04:31:44.054Z,40
2016-04-23T04:32:44.056Z,40
2016-04-23T04:33:44.090Z,40
2016-04-23T04:34:44.232Z,45
2016-04-23T04:35:44.173Z,45
2016-04-23T04:36:44.206Z,45
2016-04-23T04:37:44.256Z,45
2016-04-23T04:38:44.290Z,50
2016-04-23T04:39:44.309Z,50
2016-04-23T04:40:44.359Z,50
2016-04-23T04:41:44.408Z,50
2016-04-23T04:42:44.442Z,50
2016-04-23T04:43:44.491Z,55
2016-04-23T04:44:44.525Z,55
2016-04-23T04:45:44.637Z,55
2016-04-23T04:46:44.625Z,55
2016-04-23T04:47:43.862Z,55
2016-04-23T04:48:44.677Z,55
2016-04-23T04:49:44.727Z,55
2016-04-23T04:50:44.729Z,60
2016-04-23T04:51:44.778Z,60
2016-04-23T04:52:44.874Z,60
2016-04-23T04:53:44.877Z,65
2016-04-23T04:54:44.880Z,65
2016-04-23T04:55:44.977Z,65
2016-04-23T04:56:43.433Z,65
2016-04-23T04:57:44.998Z,70
2016-04-23T04:58:45.047Z,70
2016-04-23T04:59:45.096Z,70
2016-04-23T05:00:45.177Z,75
2016-04-23T05:01:45.149Z,75
2016-04-23T05:02:45.199Z,75
2016-04-23T05:03:45.296Z,80
2016-04-23T05:04:45.267Z,80
2016-04-23T05:05:45.301Z,80
2016-04-23T05:06:45.428Z,85
2016-04-23T05:07:45.463Z,85
2016-04-23T05:08:45.417Z,90
2016-04-23T05:09:45.467Z,90
2016-04-23T05:10:45.548Z,90
2016-04-23T05:11:45.567Z,95
2016-04-23T05:12:45.600Z,95
2016-04-23T05:13:44.900Z,100
2016-04-23T05:14:44.872Z,100
2016-04-23T05:15:45.687Z,100
2016-04-23T05:16:45.736Z,100
2016-04-23T05:17:45.786Z,100
2016-04-23T05:18:45.820Z,100
2016-04-23T05:19:45.839Z,100
2016-04-23T05:20:45.872Z,100
2016-04-23T05:21:45.984Z,100
2016-04-23T05:22:45.955Z,100
2016-04-23T05:23:45.989Z,100
2016-04-23T05:24:46.054Z,100
2016-04-23T05:25:46.151Z,100
2016-04-23T05:26:46.107Z,105
2016-04-23T05:27:46.157Z,105
2016-04-23T05:28:46.191Z,105
2016-04-23T05:29:46.255Z,110
2016-04-23T05:30:46.258Z,110
2016-04-23T05:31:46.167Z,110
2016-04-23T05:32:46.451Z,110
2016-04-23T05:33:46.360Z,110
2016-04-23T05:34:46.410Z,110
2016-04-23T05:35:46.475Z,110
2016-04-23T05:36:46.556Z,110
2016-04-23T05:37:46.543Z,110
2016-04-23T05:38:46.576Z,105
2016-04-23T05:39:46.704Z,105
2016-04-23T05:40:46.676Z,100
2016-04-23T05:41:46.695Z,100
2016-04-23T05:42:46.806Z,95
2016-04-23T05:43:46.825Z,95
2016-04-23T05:44:46.796Z,100
2016-04-23T05:45:46.830Z,100
2016-04-23T05:46:46.942Z,105
2016-04-23T05:47:46.163Z,105
2016-04-23T05:48:46.979Z,105
2016-04-23T05:49:46.981Z,110
2016-04-23T05:50:47.078Z,110
2016-04-23T05:51:46.987Z,115
2016-04-23T05:52:47.130Z,120
2016-04-23T05:53:47.164Z,125
2016-04-23T05:54:47.260Z,130
2016-04-23T05:55:47.216Z,135
2016-04-23T05:56:47.282Z,140
2016-04-23T05:57:47.330Z,145
2016-04-23T05:58:47.427Z,150
2016-04-23T05:59:47.383Z,160
2016-04-23T06:00:47.418Z,165
2016-04-23T06:01:47.560Z,175
2016-04-23T06:02:47.516Z,185
2016-04-23T06:03:47.518Z,195
2016-04-23T06:04:47.632Z,200
2016-04-23T06:05:47.681Z,205
2016-04-23T06:06:47.668Z,205
2016-04-23T06:07:47.718Z,210
2016-04-23T06:08:47.798Z,210
2016-04-23T06:09:47.848Z,210
2016-04-23T06:10:47.803Z,210
2016-04-23T06:11:47.853Z,215
2016-04-23T06:12:47.918Z,215
2016-04-23T06:13:47.967Z,220
2016-04-23T06:14:47.970Z,225
2016-04-23T06:15:48.036Z,230
2016-04-23T06:16:48.070Z,235
2016-04-23T06:17:48.103Z,240
2016-04-23T06:18:48.137Z,245
2016-04-23T06:19:48.186Z,245
2016-04-23T06:20:48.268Z,250
2016-04-23T06:21:48.256Z,250
2016-04-23T06:22:48.289Z,250
2016-04-23T06:23:48.355Z,255
2016-04-23T06:24:47.591Z,255
2016-04-23T06:25:48.406Z,255
2016-04-23T06:26:47.737Z,255
2016-04-23T06:27:48.521Z,255
2016-04-23T06:28:48.539Z,255
2016-04-23T06:29:47.792Z,250
2016-04-23T06:30:48.623Z,255
2016-04-23T06:31:48.751Z,255
2016-04-23T06:32:48.707Z,255
2016-04-23T06:33:47.959Z,255
2016-04-23T06:34:48.774Z,260
2016-04-23T06:35:48.886Z,265
2016-04-23T06:36:48.843Z,270
2016-04-23T06:37:48.893Z,275
2016-04-23T06:38:48.957Z,280
2016-04-23T06:39:49.038Z,290
2016-04-23T06:40:49.009Z,295
2016-04-23T06:41:49.043Z,290
2016-04-23T06:42:49.076Z,295
2016-04-23T06:43:49.189Z,305
2016-04-23T06:44:49.161Z,300
2016-04-23T06:45:50.007Z,310
2016-04-23T06:46:49.353Z,310
2016-04-23T06:47:49.294Z,310
2016-04-23T06:48:49.312Z,315
2016-04-23T06:49:49.392Z,320
2016-04-23T06:50:49.442Z,325
2016-04-23T06:51:49.475Z,330
2016-04-23T06:52:49.495Z,330
2016-04-23T06:53:49.529Z,330
2016-04-23T06:54:49.641Z,330
2016-04-23T06:55:49.628Z,335
2016-04-23T06:56:48.880Z,330
2016-04-23T06:57:49.742Z,335
2016-04-23T06:58:49.792Z,335
2016-04-23T06:59:49.779Z,340
2016-04-23T07:00:49.829Z,340
2016-04-23T07:01:49.894Z,340
2016-04-23T07:02:49.975Z,340
2016-04-23T07:03:49.930Z,345
2016-04-23T07:04:49.980Z,345
2016-04-23T07:05:50.123Z,345
2016-04-23T07:06:50.079Z,345
2016-04-23T07:07:50.112Z,345
2016-04-23T07:08:50.147Z,345
2016-04-23T07:09:50.197Z,345
2016-04-23T07:10:49.449Z,340
2016-04-23T07:11:50.265Z,340
2016-04-23T07:12:50.345Z,345
2016-04-23T07:13:50.410Z,330
2016-04-23T07:14:50.382Z,315
2016-04-23T07:15:50.431Z,305
2016-04-23T07:16:50.465Z,295
2016-04-23T07:17:50.531Z,285
2016-04-23T07:18:50.534Z,285
2016-04-23T07:19:50.598Z,280
2016-04-23T07:20:50.695Z,280
2016-04-23T07:21:50.713Z,280
2016-04-23T07:22:50.747Z,280
2016-04-23T07:23:50.750Z,280
2016-04-23T07:24:50.800Z,280
2016-04-23T07:25:50.864Z,280
2016-04-23T07:26:50.867Z,280
2016-04-23T07:27:50.932Z,275
2016-04-23T07:28:50.982Z,280
2016-04-23T07:29:51.016Z,290
2016-04-23T07:30:51.035Z,300
2016-04-23T07:31:51.115Z,315
2016-04-23T07:32:51.133Z,325
2016-04-23T07:33:50.449Z,330
2016-04-23T07:34:51.185Z,330
2016-04-23T07:35:50.501Z,325
2016-04-23T07:36:51.285Z,325
2016-04-23T07:37:51.319Z,325
2016-04-23T07:38:51.384Z,330
2016-04-23T07:39:51.449Z,340
2016-04-23T07:40:51.467Z,350
2016-04-23T07:41:51.517Z,365
2016-04-23T07:42:51.643Z,375
2016-04-23T07:43:51.721Z,380
2016-04-23T07:44:51.768Z,380
2016-04-23T07:45:51.861Z,390
2016-04-23T07:46:52.026Z,400
2016-04-23T07:47:51.983Z,405
2016-04-23T07:48:52.096Z,420
2016-04-23T07:49:52.083Z,430
2016-04-23T07:50:52.196Z,435
2016-04-23T07:51:52.176Z,440
2016-04-23T07:52:52.246Z,445
2016-04-23T07:53:52.302Z,445
2016-04-23T07:54:52.341Z,435
2016-04-23T07:55:52.396Z,430
2016-04-23T07:56:52.434Z,425
2016-04-23T07:57:52.564Z,425
2016-04-23T07:58:52.553Z,420
2016-04-23T07:59:52.573Z,420
2016-04-23T08:00:52.609Z,430
2016-04-23T08:01:52.659Z,430
2016-04-23T08:02:52.677Z,440
2016-04-23T08:03:52.760Z,450
2016-04-23T08:04:52.654Z,450
2016-04-23T08:05:52.877Z,450
2016-04-23T08:06:52.707Z,460
2016-04-23T08:07:52.133Z,465
2016-04-23T08:08:52.964Z,470
2016-04-23T08:09:52.982Z,470
2016-04-23T08:10:53.017Z,460
2016-04-23T08:11:52.300Z,460
2016-04-23T08:12:53.194Z,475
2016-04-23T08:13:53.134Z,505
2016-04-23T08:14:53.168Z,525
2016-04-23T08:15:53.233Z,545
2016-04-23T08:16:53.314Z,540
2016-04-23T08:17:53.332Z,530
2016-04-23T08:18:53.336Z,525
2016-04-23T08:19:53.447Z,515
2016-04-23T08:20:52.652Z,500
2016-04-23T08:21:53.468Z,505
2016-04-23T08:22:53.549Z,505
2016-04-23T08:23:53.599Z,500
2016-04-23T08:24:53.616Z,505
2016-04-23T08:25:53.652Z,510
2016-04-23T08:26:52.779Z,515
2016-04-23T08:27:53.766Z,515
2016-04-23T08:28:53.752Z,515
2016-04-23T08:29:53.823Z,525
2016-04-23T08:30:54.028Z,535
2016-04-23T08:31:53.922Z,550
2016-04-23T08:32:53.987Z,565
2016-04-23T08:33:53.959Z,590
2016-04-23T08:34:54.054Z,620
2016-04-23T08:35:55.589Z,625
2016-04-23T08:36:54.107Z,620
2016-04-23T08:37:54.219Z,620
2016-04-23T08:38:54.191Z,595
2016-04-23T08:39:54.240Z,580
2016-04-23T08:40:54.695Z,595
2016-04-23T08:41:54.387Z,615
2016-04-23T08:42:54.389Z,600
2016-04-23T08:43:54.407Z,555
2016-04-23T08:44:54.504Z,545
2016-04-23T08:45:55.288Z,570
2016-04-23T08:46:54.524Z,590
2016-04-23T08:47:54.636Z,600
2016-04-23T08:48:54.547Z,600
2016-04-23T08:49:54.689Z,585
2016-04-23T08:50:55.019Z,565
2016-04-23T08:51:54.820Z,550
2016-04-23T08:52:54.838Z,555
2016-04-23T08:53:54.871Z,565
2016-04-23T08:54:54.874Z,555
2016-04-23T08:55:55.346Z,550
2016-04-23T08:56:54.958Z,560
2016-04-23T08:57:55.008Z,545
2016-04-23T08:58:55.088Z,540
2016-04-23T08:59:55.138Z,560
2016-04-23T09:00:56.031Z,580
2016-04-23T09:01:55.190Z,605
2016-04-23T09:02:55.224Z,625
2016-04-23T09:03:55.132Z,630
2016-04-23T09:04:55.323Z,615
2016-04-23T09:05:56.920Z,600
2016-04-23T09:06:55.407Z,600
2016-04-23T09:07:55.456Z,625
2016-04-23T09:08:55.506Z,655
2016-04-23T09:09:55.586Z,660
2016-04-23T09:10:56.120Z,650
2016-04-23T09:11:55.623Z,640
2016-04-23T09:12:55.704Z,630
2016-04-23T09:13:55.644Z,595
2016-04-23T09:14:55.741Z,575
2016-04-23T09:15:55.790Z,565
2016-04-23T09:16:55.824Z,550
2016-04-23T09:17:55.920Z,555
2016-04-23T09:18:55.627Z,570
2016-04-23T09:19:55.958Z,570
2016-04-23T09:20:55.991Z,555
2016-04-23T09:21:56.056Z,510
2016-04-23T09:22:56.105Z,470
2016-04-23T09:23:56.202Z,465
2016-04-23T09:24:56.236Z,505
2016-04-23T09:25:57.646Z,545
2016-04-23T09:26:56.211Z,555
2016-04-23T09:27:56.338Z,535
2016-04-23T09:28:56.356Z,510
2016-04-23T09:29:56.422Z,525
2016-04-23T09:31:02.674Z,530
2016-04-23T09:31:56.693Z,510
2016-04-23T09:32:56.821Z,495
2016-04-23T09:33:57.354Z,470
2016-04-23T09:34:56.873Z,455
2016-04-23T09:35:58.298Z,455
2016-04-23T09:36:56.690Z,455
2016-04-23T09:37:56.006Z,470
2016-04-23T09:38:56.805Z,480
2016-04-23T09:39:57.167Z,500
2016-04-23T09:41:00.045Z,505
2016-04-23T09:41:56.814Z,500
2016-04-23T09:42:57.347Z,495
2016-04-23T09:43:56.865Z,510
2016-04-23T09:44:58.181Z,540
2016-04-23T09:46:00.558Z,535
2016-04-23T09:46:57.155Z,525
2016-04-23T09:47:57.173Z,525
2016-04-23T09:48:57.239Z,535
2016-04-23T09:49:57.304Z,540
2016-04-23T09:50:58.025Z,550
2016-04-23T09:51:57.341Z,550
2016-04-23T09:52:57.436Z,535
2016-04-23T09:53:57.424Z,530
2016-04-23T09:54:57.474Z,555
2016-04-23T09:55:57.538Z,555
2016-04-23T09:56:57.572Z,545
2016-04-23T09:57:57.153Z,535
2016-04-23T09:58:57.749Z,520
2016-04-23T09:59:57.799Z,520
2016-04-23T10:00:59.036Z,530
2016-04-23T10:01:57.774Z,520
2016-04-23T10:02:57.917Z,505
2016-04-23T10:03:57.935Z,490
2016-04-23T10:04:57.125Z,485
2016-04-23T10:05:58.346Z,480
2016-04-23T10:06:58.037Z,490
2016-04-23T10:07:57.805Z,500
2016-04-23T10:08:58.104Z,525
2016-04-23T10:09:58.139Z,550
2016-04-23T10:10:58.157Z,565
2016-04-23T10:11:59.112Z,590
2016-04-23T10:12:59.287Z,625
2016-04-23T10:13:58.353Z,645
2016-04-23T10:14:58.355Z,685
2016-04-23T10:16:01.780Z,710
2016-04-23T10:16:58.439Z,715
2016-04-23T10:17:58.566Z,710
2016-04-23T10:18:58.928Z,670
2016-04-23T10:19:58.681Z,655
2016-04-23T10:20:58.684Z,645
2016-04-23T10:21:58.514Z,630
2016-04-23T10:22:58.516Z,615
2016-04-23T10:23:58.758Z,570
2016-04-23T10:24:58.808Z,555
2016-04-23T10:25:58.825Z,540
2016-04-23T10:26:58.859Z,520
2016-04-23T10:27:58.893Z,500
2016-04-23T10:28:58.943Z,490
2016-04-23T10:29:58.992Z,480
2016-04-23T10:30:58.260Z,470
2016-04-23T10:31:59.154Z,485
2016-04-23T10:32:59.125Z,490
2016-04-23T10:33:59.738Z,485
2016-04-23T10:34:59.990Z,495
2016-04-23T10:35:59.274Z,525
2016-04-23T10:36:59.292Z,555
2016-04-23T10:37:59.373Z,575
2016-04-23T10:38:59.407Z,595
2016-04-23T10:39:59.425Z,590
2016-04-23T10:40:59.459Z,560
2016-04-23T10:41:59.556Z,510
2016-04-23T10:42:59.746Z,470
2016-04-23T10:43:59.592Z,460
2016-04-23T10:44:59.626Z,485
2016-04-23T10:45:59.692Z,560
2016-04-23T10:46:59.757Z,635
2016-04-23T10:47:59.759Z,655
2016-04-23T10:49:00.528Z,610
2016-04-23T10:50:00.296Z,585
2016-04-23T10:50:59.909Z,550
2016-04-23T10:51:59.942Z,540
2016-04-23T10:53:00.054Z,555
2016-04-23T10:54:00.103Z,570
2016-04-23T10:55:00.076Z,590
2016-04-23T10:55:59.422Z,635
2016-04-23T10:57:00.205Z,660
2016-04-23T10:58:00.208Z,680
2016-04-23T10:59:00.258Z,680
2016-04-23T10:59:59.542Z,665
2016-04-23T11:01:00.419Z,675
2016-04-23T11:02:00.360Z,650
2016-04-23T11:03:00.440Z,645
2016-04-23T11:04:00.833Z,685
2016-04-23T11:05:01.227Z,675
2016-04-23T11:06:00.543Z,675
2016-04-23T11:07:00.592Z,700
2016-04-23T11:08:00.735Z,705
2016-04-23T11:09:00.691Z,660
2016-04-23T11:10:00.553Z,630
2016-04-23T11:11:00.821Z,620
2016-04-23T11:12:00.855Z,600
2016-04-23T11:13:00.843Z,600
2016-04-23T11:14:00.924Z,600
2016-04-23T11:15:00.956Z,580
2016-04-23T11:16:00.975Z,560
2016-04-23T11:17:01.040Z,560
2016-04-23T11:18:01.075Z,570
2016-04-23T11:19:01.203Z,590
2016-04-23T11:20:02.440Z,585
2016-04-23T11:21:01.208Z,555
2016-04-23T11:22:01.257Z,545
2016-04-23T11:23:32.575Z,555
2016-04-23T11:24:01.309Z,555
2016-04-23T11:25:01.390Z,540
2016-04-23T11:26:01.502Z,520
2016-04-23T11:27:01.489Z,505
2016-04-23T11:28:01.508Z,475
2016-04-23T11:29:01.542Z,450
2016-04-23T11:30:01.638Z,450
2016-04-23T11:31:01.625Z,470
2016-04-23T11:32:01.691Z,485
2016-04-23T11:33:01.755Z,495
2016-04-23T11:34:01.805Z,490
2016-04-23T11:35:01.699Z,465
2016-04-23T11:36:01.920Z,440
2016-04-23T11:37:01.922Z,420
2016-04-23T11:38:01.879Z,400
2016-04-23T11:39:01.960Z,390
2016-04-23T11:40:02.055Z,370
2016-04-23T11:41:01.933Z,370
2016-04-23T11:42:02.076Z,375
2016-04-23T11:43:02.157Z,380
2016-04-23T11:44:02.238Z,385
2016-04-23T11:45:02.273Z,370
2016-04-23T11:46:02.276Z,375
2016-04-23T11:47:02.371Z,405
2016-04-23T11:48:02.467Z,420
2016-04-23T11:49:02.424Z,420
2016-04-23T11:50:04.567Z,420
2016-04-23T11:51:02.570Z,410
2016-04-23T11:52:02.588Z,415
2016-04-23T11:53:02.591Z,425
2016-04-23T11:54:02.609Z,435
2016-04-23T11:55:01.939Z,470
2016-04-23T11:56:02.739Z,505
2016-04-23T11:57:02.726Z,510
2016-04-23T11:58:02.839Z,500
2016-04-23T11:59:02.888Z,485
2016-04-23T12:00:02.875Z,490
2016-04-23T12:01:02.894Z,480
2016-04-23T12:02:03.006Z,450
2016-04-23T12:03:03.039Z,460
2016-04-23T12:04:02.308Z,455
2016-04-23T12:05:03.794Z,445
2016-04-23T12:06:03.141Z,440
2016-04-23T12:07:03.207Z,440
2016-04-23T12:08:02.444Z,420
2016-04-23T12:09:03.290Z,425
2016-04-23T12:10:03.340Z,450
2016-04-23T12:11:03.358Z,445
2016-04-23T12:12:03.391Z,400
2016-04-23T12:13:03.441Z,375
2016-04-23T12:14:03.537Z,385
2016-04-23T12:15:03.540Z,390
2016-04-23T12:16:02.809Z,385
2016-04-23T12:17:03.640Z,380
2016-04-23T12:18:02.876Z,380
2016-04-23T12:19:03.707Z,380
2016-04-23T12:20:04.084Z,385
2016-04-23T12:21:03.776Z,380
2016-04-23T12:22:03.809Z,385
2016-04-23T12:23:03.859Z,395
2016-04-23T12:24:03.970Z,400
2016-04-23T12:25:03.161Z,400
2016-04-23T12:26:03.992Z,400
2016-04-23T12:27:04.073Z,405
2016-04-23T12:28:03.342Z,405
2016-04-23T12:29:04.125Z,400
2016-04-23T12:30:04.158Z,400
2016-04-23T12:31:04.255Z,395
2016-04-23T12:32:04.289Z,390
2016-04-23T12:33:04.277Z,405
2016-04-23T12:34:04.342Z,410
2016-04-23T12:35:04.985Z,415
2016-04-23T12:36:04.441Z,415
2016-04-23T12:37:04.459Z,400
2016-04-23T12:38:04.477Z,380
2016-04-23T12:39:04.605Z,375
2016-04-23T12:40:04.560Z,380
2016-04-23T12:41:04.610Z,385
2016-04-23T12:42:04.722Z,375
2016-04-23T12:43:04.710Z,375
2016-04-23T12:44:04.743Z,380
2016-04-23T12:45:04.809Z,395
2016-04-23T12:46:04.843Z,405
2016-04-23T12:47:04.877Z,425
2016-04-23T12:48:04.895Z,455
2016-04-23T12:49:04.945Z,465
2016-04-23T12:50:04.728Z,455
2016-04-23T12:51:05.059Z,465
2016-04-23T12:52:05.124Z,485
2016-04-23T12:53:04.440Z,485
2016-04-23T12:54:05.176Z,495
2016-04-23T12:55:05.211Z,500
2016-04-23T12:56:05.245Z,505
2016-04-23T12:57:04.512Z,505
2016-04-23T12:58:05.312Z,490
2016-04-23T12:59:05.361Z,475
2016-04-23T13:00:05.458Z,485
2016-04-23T13:01:05.461Z,490
2016-04-23T13:02:05.839Z,475
2016-04-23T13:03:05.591Z,450
2016-04-23T13:04:05.625Z,425
2016-04-23T13:05:07.440Z,420
2016-04-23T13:06:07.833Z,420
2016-04-23T13:07:12.023Z,420
2016-04-23T13:08:05.838Z,395
2016-04-23T13:09:05.809Z,365
2016-04-23T13:10:05.844Z,350
2016-04-23T13:11:05.908Z,335
2016-04-23T13:12:05.958Z,325
2016-04-23T13:13:05.945Z,310
2016-04-23T13:14:06.027Z,295
2016-04-23T13:15:05.280Z,290
2016-04-23T13:16:06.094Z,285
2016-04-23T13:17:06.127Z,275
2016-04-23T13:18:06.224Z,270
2016-04-23T13:19:06.243Z,270
2016-04-23T13:20:06.152Z,270
2016-04-23T13:21:06.795Z,275
2016-04-23T13:22:06.396Z,270
2016-04-23T13:23:06.384Z,265
2016-04-23T13:24:06.449Z,260
2016-04-23T13:25:06.342Z,255
2016-04-23T13:26:06.517Z,255
2016-04-23T13:27:06.551Z,260
2016-04-23T13:28:06.585Z,265
2016-04-23T13:29:06.680Z,270
2016-04-23T13:30:06.652Z,280
2016-04-23T13:31:05.936Z,280
2016-04-23T13:32:06.783Z,275
2016-04-23T13:33:06.019Z,270
2016-04-23T13:34:06.835Z,260
2016-04-23T13:35:07.556Z,260
2016-04-23T13:36:06.746Z,260
2016-04-23T13:37:06.812Z,270
2016-04-23T13:38:07.017Z,285
2016-04-23T13:39:07.051Z,315
2016-04-23T13:40:07.148Z,335
2016-04-23T13:41:06.354Z,340
2016-04-23T13:42:07.154Z,335
2016-04-23T13:43:07.250Z,325
2016-04-23T13:44:07.284Z,325
2016-04-23T13:45:07.271Z,330
2016-04-23T13:46:07.367Z,340
2016-04-23T13:47:07.370Z,340
2016-04-23T13:48:07.405Z,335
2016-04-23T13:49:07.438Z,330
2016-04-23T13:50:08.597Z,330
2016-04-23T13:51:08.350Z,325
2016-04-23T13:52:07.572Z,310
2016-04-23T13:53:07.590Z,300
2016-04-23T13:54:07.718Z,295
2016-04-23T13:55:06.908Z,295
2016-04-23T13:56:07.723Z,310
2016-04-23T13:57:07.835Z,310
2016-04-23T13:58:07.885Z,300
2016-04-23T13:59:07.840Z,285
2016-04-23T14:00:07.921Z,290
2016-04-23T14:01:08.033Z,295
2016-04-23T14:02:07.989Z,315
2016-04-23T14:03:08.023Z,330
2016-04-23T14:04:08.104Z,320
2016-04-23T14:05:08.763Z,310
2016-04-23T14:06:09.000Z,305